• Join FlightAware (Why Join?)
  • Login
  • US Flag 
Rudolph Flight #1: Arrived! 
05:19AM EST


 

Airport Tracker/Info


-or-


 

Live Flight TrackerFlight Track Log ✈ TAM3110 ✈ 27-Aug-2013 ✈ SBFL / FLN - SBSP / CGH

Flight Track Log - Related Links

Times and Time Zones

All times are in EDT time to prevent confusion due to time zone crossing. See the TAM3110 flight status page for this flight to view local times or setup timezone preferences in your user account.

Time Position Orientation Groundspeed Altitude Reporting Facility
EDT Latitude Longitude Course Direction KTS MPH feet Rate Location/Type
06:55PM -27.6820 -48.5190 112° Southeast 163 188 900  Level FlightAware
06:55PM -27.6860 -48.5060 109° East 183 211 1,400 1,980 Climbing FlightAware
06:55PM -27.6920 -48.4860 109° East 203 234 2,100 2,340 Climbing FlightAware
06:55PM -27.6930 -48.4770 97° East 204 235 2,500 1,980 Climbing FlightAware
06:56PM -27.6850 -48.4470 73° East 246 283 3,300 1,920 Climbing FlightAware
06:56PM -27.6830 -48.4300 82° East 264 304 3,800 780 Climbing FlightAware
06:57PM -27.6810 -48.4000 86° East 264 304 3,800 3,660 Level FlightAware
06:57PM -27.6880 -48.3800 112° Southeast 275 316 6,000 6,840 Climbing FlightAware
06:57PM -27.6920 -48.3570 101° East 277 319 6,900 3,480 Climbing FlightAware
06:58PM -27.6880 -48.2970 86° East 300 345 9,300 3,600 Climbing FlightAware
06:58PM -27.6760 -48.2840 44° Northeast 301 346 10,000 3,300 Climbing FlightAware
06:58PM -27.6680 -48.2790 29° Northeast 298 343 10,400 2,100 Climbing FlightAware
06:59PM -27.6230 -48.2610 20° North 334 384 11,400 2,160 Climbing FlightAware
06:59PM -27.5680 -48.2380 20° North 359 413 12,900 2,160 Climbing FlightAware
07:00PM -27.5070 -48.2110 21° North 386 444 14,100 2,220 Climbing FlightAware
07:00PM -27.4430 -48.1840 21° North 400 460 15,700 2,520 Climbing FlightAware
07:01PM -27.3930 -48.1620 21° North 405 466 17,300 2,280 Climbing FlightAware
07:02PM -27.3210 -48.1320 20° North 419 482 18,500 2,220 Climbing FlightAware
07:02PM -27.2450 -48.1000 21° North 425 489 20,100 2,220 Climbing FlightAware
07:03PM -27.1800 -48.0720 21° North 432 497 21,300 2,040 Climbing FlightAware
07:04PM -27.1010 -48.0390 20° North 441 507 22,700 2,040 Climbing FlightAware
07:04PM -27.0370 -48.0120 21° North 442 509 23,900 2,100 Climbing FlightAware
07:05PM -26.9670 -47.9820 21° North 440 506 25,200 1,680 Climbing FlightAware
07:05PM -26.8900 -47.9500 20° North 454 522 26,000 1,260 Climbing FlightAware
07:06PM -26.8260 -47.9220 21° North 459 528 26,800 1,920 Climbing FlightAware
07:07PM -26.7400 -47.8860 20° North 447 514 28,400 2,640 Climbing FlightAware
07:07PM -26.6850 -47.8630 20° North 429 494 29,900 2,400 Climbing FlightAware
07:08PM -26.6210 -47.8360 21° North 418 481 31,100 1,200 Climbing FlightAware
07:08PM -26.5540 -47.8090 20° North 435 501 31,300 480 Climbing FlightAware
07:09PM -26.4900 -47.7820 21° North 445 512 31,700 840 Climbing FlightAware
07:09PM -26.4200 -47.7520 21° North 449 517 32,300 1,080 Climbing FlightAware
07:10PM -26.3630 -47.7280 21° North 450 518 32,900 600 Climbing FlightAware
07:11PM -26.2940 -47.7000 20° North 445 512 33,000 60 Climbing FlightAware
07:11PM -26.2070 -47.6640 20° North 441 507 33,000  Level FlightAware
07:12PM -26.1410 -47.6360 21° North 441 507 33,000  Level FlightAware
07:12PM -26.0750 -47.6090 20° North 442 509 33,000  Level FlightAware
07:13PM -25.9970 -47.5760 21° North 443 510 33,000  Level FlightAware
07:14PM -25.9590 -47.5600 21° North 440 506 33,000  Level FlightAware
07:14PM -25.8770 -47.5260 20° North 438 504 33,000  Level FlightAware
07:15PM -25.8040 -47.4960 20° North 437 503 33,000  Level FlightAware
07:15PM -25.7510 -47.4740 20° North 437 503 33,000  Level FlightAware
07:16PM -25.6740 -47.4430 20° North 439 505 33,000  Level FlightAware
07:17PM -25.6080 -47.4150 21° North 438 504 33,000  Level FlightAware
07:17PM -25.5300 -47.3830 20° North 437 503 33,000  Level FlightAware
07:18PM -25.4680 -47.3570 21° North 437 503 33,000  Level FlightAware
07:19PM -25.3970 -47.3280 20° North 437 503 33,000  Level FlightAware
07:19PM -25.3030 -47.2900 20° North 436 502 33,000  Level FlightAware
07:20PM -25.2390 -47.2640 20° North 437 503 33,000  Level FlightAware
07:20PM -25.1870 -47.2430 20° North 438 504 33,000 -900 Level FlightAware
07:21PM -25.1150 -47.2140 20° North 440 506 32,000 -1,740 Descending FlightAware
07:22PM -25.0520 -47.1880 21° North 436 502 31,000 -2,400 Descending FlightAware
07:22PM -24.9790 -47.1590 20° North 446 513 29,300 -2,880 Descending FlightAware
07:23PM -24.9080 -47.1300 20° North 453 521 27,600 -2,700 Descending FlightAware
07:23PM -24.8520 -47.1080 20° North 453 521 26,300 -2,700 Descending FlightAware
07:24PM -24.7730 -47.0750 21° North 421 484 24,500 -2,760 Descending FlightAware
07:24PM -24.7150 -47.0520 20° North 409 471 22,900 -2,640 Descending FlightAware
07:25PM -24.6510 -47.0260 20° North 397 457 21,400 -2,340 Descending FlightAware
07:26PM -24.5950 -47.0040 20° North 386 444 20,200 -2,220 Descending FlightAware
07:26PM -24.5250 -46.9760 20° North 391 450 18,700 -2,220 Descending FlightAware
07:27PM -24.4720 -46.9440 29° Northeast 401 461 17,500 -2,160 Descending FlightAware
07:28PM -24.4110 -46.9000 33° Northeast 391 450 16,100 -2,100 Descending FlightAware
07:28PM -24.3600 -46.8630 33° Northeast 389 448 14,900 -2,220 Descending FlightAware
07:29PM -24.2910 -46.8140 33° Northeast 384 442 13,300 -2,100 Descending FlightAware
07:29PM -24.2370 -46.7710 36° Northeast 378 435 12,100 -1,740 Descending FlightAware
07:30PM -24.2230 -46.7450 59° Northeast 373 429 11,800 -840 Descending FlightAware
07:30PM -24.1980 -46.6920 63° Northeast 347 399 11,400 -900 Descending FlightAware
07:31PM -24.1760 -46.6420 64° Northeast 326 375 10,800 -1,320 Descending FlightAware
07:32PM -24.1490 -46.5830 63° Northeast 321 369 9,800 -1,320 Descending FlightAware
07:32PM -24.1320 -46.5470 63° Northeast 311 358 9,400 -840 Descending FlightAware
07:32PM -24.1200 -46.5200 64° Northeast 299 344 9,200 -660 Descending FlightAware
07:33PM -24.1040 -46.4860 63° Northeast 286 329 8,900 -840 Descending FlightAware
07:33PM -24.0870 -46.4490 63° Northeast 271 312 8,500 -720 Descending FlightAware
07:33PM -24.0780 -46.4310 61° Northeast 259 298 8,400 -480 Descending FlightAware
07:34PM -24.0670 -46.4090 61° Northeast 246 283 8,200 -540 Descending FlightAware
07:34PM -24.0550 -46.3820 64° Northeast 233 268 8,000 -480 Descending FlightAware
07:34PM -24.0420 -46.3710 38° Northeast 219 252 7,900 -480 Descending FlightAware
07:35PM -24.0330 -46.3700 North 202 232 7,800 -420 Descending FlightAware
07:35PM -24.0270 -46.3730 335° Northwest 195 224 7,800 -420 Level FlightAware
07:35PM -24.0220 -46.3790 312° West 185 213 7,700 -540 Descending FlightAware
07:35PM -24.0120 -46.3890 318° Northwest 184 212 7,600 -420 Descending FlightAware
07:35PM -24.0000 -46.3980 326° Northwest 187 215 7,500 -300 Descending FlightAware
07:36PM -23.9810 -46.4110 328° Northwest 185 213 7,400 -300 Descending FlightAware
07:36PM -23.9700 -46.4190 326° Northwest 181 208 7,300 -300 Descending FlightAware
07:37PM -23.9520 -46.4320 327° Northwest 186 214 7,200 -300 Descending FlightAware
07:37PM -23.9380 -46.4420 327° Northwest 186 214 7,100 -360 Descending FlightAware
07:37PM -23.9260 -46.4500 329° Northwest 186 214 7,000 -300 Descending FlightAware
07:38PM -23.9080 -46.4620 329° Northwest 185 213 6,900 -360 Descending FlightAware
07:38PM -23.8860 -46.4770 328° Northwest 186 214 6,700 -360 Descending FlightAware
07:38PM -23.8680 -46.4890 329° Northwest 188 216 6,600 -300 Descending FlightAware
07:39PM -23.8540 -46.5000 324° Northwest 187 215 6,500 -360 Descending FlightAware
07:39PM -23.8420 -46.5080 329° Northwest 185 213 6,400 -420 Descending FlightAware
07:39PM -23.8290 -46.5160 331° Northwest 187 215 6,300 -180 Descending FlightAware
07:40PM -23.8120 -46.5280 327° Northwest 181 208 6,300 -180 Level FlightAware
07:40PM -23.7960 -46.5400 326° Northwest 156 180 6,200 -480 Descending FlightAware
07:41PM -23.7810 -46.5500 329° Northwest 148 170 5,900 -900 Descending FlightAware
07:41PM -23.7670 -46.5590 330° Northwest 151 174 5,500 -1,080 Descending FlightAware
07:41PM -23.7570 -46.5660 327° Northwest 152 175 5,200 -720 Descending FlightAware
07:42PM -23.7470 -46.5730 327° Northwest 146 168 5,100 -600 Descending FlightAware
07:42PM -23.7390 -46.5790 326° Northwest 142 163 4,900 -900 Descending FlightAware
07:42PM -23.7250 -46.5880 330° Northwest 139 160 4,500 -840 Descending FlightAware
07:43PM -23.7140 -46.5960 326° Northwest 138 159 4,300 -720 Descending FlightAware
07:43PM -23.7010 -46.6050 328° Northwest 130 150 4,000 -900 Descending FlightAware
07:43PM -23.6930 -46.6110 326° Northwest 131 151 3,700 -840 Descending FlightAware
07:44PM -23.6810 -46.6190 329° Northwest 127 146 3,500 -600 Descending FlightAware
07:44PM -23.6720 -46.6250 329° Northwest 127 146 3,300 -660 Descending FlightAware
07:44PM -23.6600 -46.6330 329° Northwest 127 146 3,000 -780 Descending FlightAware
07:45PM -23.6520 -46.6390 326° Northwest 125 144 2,800 -780 Descending FlightAware
07:45PM -23.6390 -46.6480 328° Northwest 126 145 2,500 -780 Descending FlightAware
07:45PM -23.6280 -46.6560 326° Northwest 125 144 -6,000 Descending FlightAware
07:47PM -23.6170 -46.6470 67° East 125 144  Level FlightAware
07:47PM -23.6260 -46.6580 228° Southwest 125 144  Level FlightAware
07:48PM -23.6180 -46.6470 52° Northeast 125 144  Level FlightAware
07:48PM -23.6190 -46.6450 119° Southeast 125 144  Level FlightAware
07:48PM -23.6290 -46.6570 228° Southwest 125 144  Level FlightAware
07:49PM -23.6280 -46.6420 86° East 125 144  Level FlightAware
07:49PM -23.6300 -46.6590 263° West 125 144  Level FlightAware
07:50PM -23.6370 -46.6460 120° Southeast 125 144  Level FlightAware